createdAt,value
2022-11-28T00:00:27.289Z,98304.50
2022-11-28T00:01:33.922Z,98302.69
2022-11-28T00:02:35.419Z,98305.03
2022-11-28T00:03:36.976Z,98296.38
2022-11-28T00:04:38.451Z,98292.97
2022-11-28T00:05:44.260Z,98304.25
2022-11-28T00:06:48.292Z,98296.63
2022-11-28T00:07:49.767Z,98300.84
2022-11-28T00:08:51.175Z,98314.22
2022-11-28T00:09:52.569Z,98308.19
2022-11-28T00:10:53.957Z,98301.38
2022-11-28T00:11:55.555Z,98304.78
2022-11-28T00:12:56.948Z,98308.19
2022-11-28T00:13:58.296Z,98298.19
2022-11-28T00:14:59.655Z,98292.94
2022-11-28T00:16:02.147Z,98291.63
2022-11-28T00:17:03.536Z,98293.44
2022-11-28T00:18:04.987Z,98297.91
2022-11-28T00:19:06.753Z,98297.91
2022-11-28T00:20:08.172Z,98295.03
2022-11-28T00:21:10.978Z,98291.91
2022-11-28T00:22:12.634Z,98291.38
2022-11-28T00:23:14.003Z,98292.16
2022-11-28T00:24:15.432Z,98297.41
2022-11-28T00:25:16.865Z,98295.78
2022-11-28T00:26:20.575Z,98299.50
2022-11-28T00:27:21.979Z,98297.63
2022-11-28T00:28:23.582Z,98294.47
2022-11-28T00:29:25.172Z,98303.69
2022-11-28T00:30:26.574Z,98300.28
2022-11-28T00:31:29.766Z,98298.97
2022-11-28T00:32:31.208Z,98293.69
2022-11-28T00:33:33.379Z,98297.91
2022-11-28T00:34:34.764Z,98292.41
2022-11-28T00:35:36.168Z,98295.03
2022-11-28T00:36:37.560Z,98301.34
2022-11-28T00:37:38.918Z,98301.63
2022-11-28T00:38:40.399Z,98300.84
2022-11-28T00:39:41.754Z,98292.94
2022-11-28T00:40:43.116Z,98291.88
2022-11-28T00:41:44.701Z,98288.22
2022-11-28T00:42:46.052Z,98291.38
2022-11-28T00:43:48.568Z,98289.78
2022-11-28T00:44:49.944Z,98295.56
2022-11-28T00:45:51.384Z,98287.69
2022-11-28T00:46:52.797Z,98279.81
2022-11-28T00:47:54.189Z,98285.31
2022-11-28T00:48:56.992Z,98286.13
2022-11-28T00:49:58.338Z,98280.06
2022-11-28T00:51:32.198Z,98286.91
2022-11-28T00:52:33.531Z,98279.28
2022-11-28T00:53:35.376Z,98279.53
2022-11-28T00:54:36.873Z,98275.34
2022-11-28T00:55:38.824Z,98276.41
2022-11-28T00:56:40.500Z,98278.75
2022-11-28T00:57:42.007Z,98275.63
2022-11-28T00:58:43.359Z,98276.41
2022-11-28T00:59:44.945Z,98278.25
2022-11-28T01:00:46.344Z,98274.03
2022-11-28T01:01:47.825Z,98278.78
2022-11-28T01:02:49.318Z,98279.84
2022-11-28T01:03:51.665Z,98275.88
2022-11-28T01:04:53.016Z,98280.38
2022-11-28T01:05:54.370Z,98278.00
2022-11-28T01:06:55.862Z,98280.66
2022-11-28T01:07:57.325Z,98281.44
2022-11-28T01:09:00.419Z,98273.53
2022-11-28T01:10:01.813Z,98273.81
2022-11-28T01:11:03.639Z,98269.59
2022-11-28T01:12:05.092Z,98264.34
2022-11-28T01:13:06.522Z,98262.50
2022-11-28T01:14:08.367Z,98261.72
2022-11-28T01:15:11.210Z,98251.75
2022-11-28T01:16:13.000Z,98248.59
2022-11-28T01:17:14.425Z,98247.28
2022-11-28T01:18:15.743Z,98242.28
2022-11-28T01:19:17.551Z,98246.25
2022-11-28T01:20:18.932Z,98245.19
2022-11-28T01:21:20.424Z,98241.25
2022-11-28T01:22:21.813Z,98237.28
2022-11-28T01:23:23.152Z,98235.72
2022-11-28T01:24:24.530Z,98240.97
2022-11-28T01:25:25.908Z,98226.28
2022-11-28T01:26:28.412Z,98232.03
2022-11-28T01:27:29.826Z,98231.22
2022-11-28T01:28:31.189Z,98223.34
2022-11-28T01:29:32.598Z,98230.16
2022-11-28T01:30:33.980Z,98226.75
2022-11-28T01:31:35.900Z,98234.91
2022-11-28T01:32:37.289Z,98239.91
2022-11-28T01:33:38.603Z,98235.69
2022-11-28T01:34:40.074Z,98243.09
2022-11-28T01:35:41.618Z,98247.28
2022-11-28T01:36:42.982Z,98237.56
2022-11-28T01:37:44.339Z,98242.03
2022-11-28T01:38:45.782Z,98237.78
2022-11-28T01:39:47.149Z,98242.50
2022-11-28T01:40:48.523Z,98242.00
2022-11-28T01:41:49.924Z,98246.47
2022-11-28T01:42:51.487Z,98245.69
2022-11-28T01:43:58.575Z,98244.91
2022-11-28T01:45:07.994Z,98246.72
2022-11-28T01:46:09.525Z,98249.88
2022-11-28T01:47:11.017Z,98253.00
2022-11-28T01:48:15.237Z,98251.16
2022-11-28T01:49:27.076Z,98245.66
2022-11-28T01:50:29.413Z,98243.53
2022-11-28T01:51:31.580Z,98241.44
2022-11-28T01:52:33.721Z,98230.63
2022-11-28T01:53:37.631Z,98228.28
2022-11-28T01:54:40.766Z,98229.31
2022-11-28T01:56:02.502Z,98229.59
2022-11-28T01:57:06.277Z,98227.25
2022-11-28T01:58:07.692Z,98230.38
2022-11-28T01:59:10.677Z,98232.97
2022-11-28T02:00:13.902Z,98230.63
2022-11-28T02:01:17.142Z,98229.28
2022-11-28T02:02:23.217Z,98229.06
2022-11-28T02:03:47.603Z,98223.25
2022-11-28T02:04:50.337Z,98223.22
2022-11-28T02:05:52.847Z,98229.03
2022-11-28T02:06:55.017Z,98219.84
2022-11-28T02:07:56.414Z,98216.16
2022-11-28T02:08:57.863Z,98213.03
2022-11-28T02:10:00.066Z,98210.69
2022-11-28T02:11:16.470Z,98211.47
2022-11-28T02:12:36.480Z,98210.94
2022-11-28T02:13:44.736Z,98202.56
2022-11-28T02:14:49.002Z,98205.19
2022-11-28T02:16:02.615Z,98204.41
2022-11-28T02:17:36.226Z,98197.81
2022-11-28T02:18:50.587Z,98204.66
2022-11-28T02:19:52.211Z,98194.13
2022-11-28T02:20:56.216Z,98188.59
2022-11-28T02:21:57.577Z,98186.25
2022-11-28T02:23:08.251Z,98181.78
2022-11-28T02:24:09.595Z,98181.25
2022-11-28T02:25:29.772Z,98182.28
2022-11-28T02:26:50.055Z,98178.88
2022-11-28T02:28:09.983Z,98175.97
2022-11-28T02:29:14.326Z,98162.03
2022-11-28T02:30:26.462Z,98175.19
2022-11-28T02:31:33.954Z,98165.44
2022-11-28T02:32:35.400Z,98162.00
2022-11-28T02:33:44.863Z,98158.88
2022-11-28T02:35:04.748Z,98155.72
2022-11-28T02:36:12.193Z,98149.09
2022-11-28T02:37:43.011Z,98144.91
2022-11-28T02:38:47.438Z,98148.59
2022-11-28T02:39:51.327Z,98139.91
2022-11-28T02:41:02.265Z,98134.16
2022-11-28T02:42:09.799Z,98135.72
2022-11-28T02:43:20.347Z,98137.03
2022-11-28T02:44:32.834Z,98148.59
2022-11-28T02:45:52.605Z,98154.66
2022-11-28T02:46:58.084Z,98155.69
2022-11-28T02:48:19.759Z,98154.91
2022-11-28T02:49:21.178Z,98149.69
2022-11-28T02:50:24.839Z,98139.19
2022-11-28T02:51:31.300Z,98136.03
2022-11-28T02:52:35.728Z,98138.63
2022-11-28T02:53:37.483Z,98140.75
2022-11-28T02:54:39.490Z,98151.53
2022-11-28T02:55:42.867Z,98159.41
2022-11-28T02:56:51.713Z,98167.34
2022-11-28T02:57:53.947Z,98163.09
2022-11-28T02:58:55.348Z,98177.56
2022-11-28T02:59:56.709Z,98176.28
2022-11-28T03:00:58.220Z,98178.13
2022-11-28T03:02:00.539Z,98170.25
2022-11-28T03:03:04.857Z,98147.13
2022-11-28T03:04:06.260Z,98130.06
2022-11-28T03:05:13.178Z,98122.41
2022-11-28T03:06:29.972Z,98122.69
2022-11-28T03:07:31.352Z,98115.09
2022-11-28T03:08:35.551Z,98117.97
2022-11-28T03:10:09.460Z,98119.75
2022-11-28T03:11:23.246Z,98118.44
2022-11-28T03:12:27.353Z,98117.41
2022-11-28T03:13:37.294Z,98119.53
2022-11-28T03:14:41.551Z,98138.72
2022-11-28T03:15:46.049Z,98144.78
2022-11-28T03:16:50.413Z,98139.00
2022-11-28T03:17:54.556Z,98141.63
2022-11-28T03:19:09.680Z,98147.94
2022-11-28T03:20:15.042Z,98162.94
2022-11-28T03:21:22.300Z,98141.41
2022-11-28T03:22:23.726Z,98135.63
2022-11-28T03:23:36.613Z,98125.41
2022-11-28T03:24:43.518Z,98128.31
2022-11-28T03:25:54.841Z,98136.69
2022-11-28T03:27:06.199Z,98138.50
2022-11-28T03:28:10.683Z,98136.38
2022-11-28T03:29:15.726Z,98130.91
2022-11-28T03:30:22.597Z,98126.44
2022-11-28T03:31:27.260Z,98133.78
2022-11-28T03:32:31.741Z,98139.31
2022-11-28T03:33:37.151Z,98141.41
2022-11-28T03:34:40.859Z,98139.03
2022-11-28T03:35:47.087Z,98136.97
2022-11-28T03:36:57.983Z,98142.22
2022-11-28T03:38:02.885Z,98146.69
2022-11-28T03:39:24.406Z,98136.97
2022-11-28T03:40:28.140Z,98141.44
2022-11-28T03:41:36.491Z,98145.63
2022-11-28T03:42:43.658Z,98128.00
2022-11-28T03:43:49.952Z,98127.50
2022-11-28T03:44:58.884Z,98133.00
2022-11-28T03:46:02.576Z,98123.56
2022-11-28T03:47:05.517Z,98126.19
2022-11-28T03:48:09.879Z,98125.41
2022-11-28T03:49:12.406Z,98127.75
2022-11-28T03:50:16.221Z,98118.31
2022-11-28T03:51:32.732Z,98127.53
2022-11-28T03:52:37.987Z,98131.19
2022-11-28T03:53:49.655Z,98128.56
2022-11-28T03:55:01.916Z,98117.81
2022-11-28T03:56:07.610Z,98113.59
2022-11-28T03:57:09.036Z,98114.41
2022-11-28T03:58:14.924Z,98111.78
2022-11-28T03:59:23.995Z,98105.72
2022-11-28T04:00:25.582Z,98113.09
2022-11-28T04:01:34.215Z,98108.91
2022-11-28T04:02:44.549Z,98105.72
2022-11-28T04:03:54.838Z,98102.59
2022-11-28T04:05:19.392Z,98104.72
2022-11-28T04:06:20.723Z,98100.25
2022-11-28T04:07:27.904Z,98103.13
2022-11-28T04:08:39.540Z,98108.66
2022-11-28T04:09:43.471Z,98101.06
2022-11-28T04:10:47.648Z,98095.53
2022-11-28T04:11:54.655Z,98096.84
2022-11-28T04:13:11.228Z,98101.31
2022-11-28T04:14:18.360Z,98110.75
2022-11-28T04:15:26.897Z,98110.50
2022-11-28T04:16:53.630Z,98099.22
2022-11-28T04:18:00.759Z,98111.28
2022-11-28T04:19:16.754Z,98106.03
2022-11-28T04:20:29.843Z,98107.09
2022-11-28T04:21:39.931Z,98108.94
2022-11-28T04:22:44.802Z,98106.59
2022-11-28T04:23:50.080Z,98106.84
2022-11-28T04:24:53.709Z,98110.25
2022-11-28T04:26:01.908Z,98107.63
2022-11-28T04:27:08.484Z,98113.16
2022-11-28T04:28:14.843Z,98104.50
2022-11-28T04:29:18.403Z,98121.03
2022-11-28T04:30:19.821Z,98112.88
2022-11-28T04:31:22.781Z,98109.47
2022-11-28T04:32:25.491Z,98108.41
2022-11-28T04:33:29.312Z,98112.88
2022-11-28T04:34:32.305Z,98115.50
2022-11-28T04:35:35.156Z,98108.69
2022-11-28T04:36:38.950Z,98111.03
2022-11-28T04:37:42.081Z,98111.84
2022-11-28T04:38:45.484Z,98109.22
2022-11-28T04:39:48.025Z,98108.16
2022-11-28T04:40:52.467Z,98102.91
2022-11-28T04:41:53.805Z,98098.94
2022-11-28T04:43:00.489Z,98107.59
2022-11-28T04:44:08.144Z,98110.22
2022-11-28T04:45:12.593Z,98105.75
2022-11-28T04:46:18.028Z,98101.31
2022-11-28T04:47:19.442Z,98091.84
2022-11-28T04:48:20.877Z,98101.56
2022-11-28T04:49:23.670Z,98094.75
2022-11-28T04:50:28.418Z,98095.81
2022-11-28T04:51:29.761Z,98088.22
2022-11-28T04:52:37.204Z,98094.50
2022-11-28T04:53:48.305Z,98090.03
2022-11-28T04:54:52.761Z,98092.63
2022-11-28T04:55:59.143Z,98089.50
2022-11-28T04:57:03.827Z,98096.59
2022-11-28T04:58:05.129Z,98094.25
2022-11-28T04:59:07.207Z,98095.28
2022-11-28T05:00:10.680Z,98095.28
2022-11-28T05:01:15.720Z,98091.88
2022-11-28T05:02:18.641Z,98086.91
2022-11-28T05:03:20.277Z,98080.09
2022-11-28T05:04:21.702Z,98089.03
2022-11-28T05:05:24.957Z,98084.56
2022-11-28T05:06:27.813Z,98088.22
2022-11-28T05:07:29.344Z,98082.97
2022-11-28T05:08:30.906Z,98090.84
2022-11-28T05:09:32.522Z,98091.91
2022-11-28T05:10:34.004Z,98095.59
2022-11-28T05:11:35.745Z,98096.13
2022-11-28T05:12:37.354Z,98102.19
2022-11-28T05:13:38.845Z,98096.13
2022-11-28T05:14:40.611Z,98107.69
2022-11-28T05:15:42.359Z,98098.25
2022-11-28T05:16:43.941Z,98106.41
2022-11-28T05:17:47.112Z,98102.19
2022-11-28T05:18:49.019Z,98111.91
2022-11-28T05:19:50.442Z,98104.59
2022-11-28T05:20:51.916Z,98105.66
2022-11-28T05:21:53.311Z,98104.84
2022-11-28T05:22:54.692Z,98110.38
2022-11-28T05:23:56.112Z,98108.03
2022-11-28T05:24:57.642Z,98106.72
2022-11-28T05:25:59.288Z,98112.25
2022-11-28T05:27:00.731Z,98106.22
2022-11-28T05:28:02.209Z,98099.41
2022-11-28T05:29:04.371Z,98106.22
2022-11-28T05:30:06.228Z,98110.13
2022-11-28T05:31:07.714Z,98118.78
2022-11-28T05:32:09.674Z,98120.91
2022-11-28T05:33:11.057Z,98115.94
2022-11-28T05:34:12.442Z,98121.44
2022-11-28T05:35:14.086Z,98122.78
2022-11-28T05:36:15.992Z,98126.47
2022-11-28T05:37:17.382Z,98125.69
2022-11-28T05:38:18.769Z,98125.94
2022-11-28T05:39:20.129Z,98116.50
2022-11-28T05:40:21.577Z,98125.94
2022-11-28T05:41:26.547Z,98126.72
2022-11-28T05:42:28.063Z,98125.94
2022-11-28T05:43:30.085Z,98122.81
2022-11-28T05:44:31.458Z,98117.56
2022-11-28T05:45:32.866Z,98115.72
2022-11-28T05:46:34.284Z,98118.84
2022-11-28T05:47:35.902Z,98125.16
2022-11-28T05:48:37.338Z,98123.06
2022-11-28T05:49:38.716Z,98125.69
2022-11-28T05:50:40.716Z,98121.47
2022-11-28T05:51:42.626Z,98118.06
2022-11-28T05:52:44.136Z,98123.06
2022-11-28T05:53:45.900Z,98126.19
2022-11-28T05:54:47.506Z,98123.56
2022-11-28T05:55:49.221Z,98121.72
2022-11-28T05:56:50.731Z,98123.03
2022-11-28T05:57:52.293Z,98123.81
2022-11-28T05:58:56.715Z,98121.97
2022-11-28T05:59:58.275Z,98125.66
2022-11-28T06:00:59.639Z,98121.97
2022-11-28T06:02:01.196Z,98119.34
2022-11-28T06:03:03.826Z,98118.28
2022-11-28T06:04:05.216Z,98119.06
2022-11-28T06:05:21.329Z,98112.25
2022-11-28T06:06:29.919Z,98107.78
2022-11-28T06:07:31.647Z,98110.41
2022-11-28T06:08:33.238Z,98115.66
2022-11-28T06:09:34.700Z,98115.66
2022-11-28T06:10:38.052Z,98120.91
2022-11-28T06:11:41.418Z,98114.88
2022-11-28T06:12:42.847Z,98121.69
2022-11-28T06:13:44.921Z,98113.53
2022-11-28T06:14:46.337Z,98124.56
2022-11-28T06:15:47.669Z,98126.13
2022-11-28T06:16:49.208Z,98120.88
2022-11-28T06:17:50.644Z,98125.34
2022-11-28T06:18:52.736Z,98126.41
2022-11-28T06:19:54.269Z,98124.84
2022-11-28T06:20:55.636Z,98118.00
2022-11-28T06:21:57.075Z,98122.47
2022-11-28T06:22:58.422Z,98119.59
2022-11-28T06:24:00.322Z,98119.34
2022-11-28T06:25:01.714Z,98118.81
2022-11-28T06:26:11.949Z,98116.47
2022-11-28T06:27:13.349Z,98125.41
2022-11-28T06:28:14.743Z,98121.47
2022-11-28T06:29:16.233Z,98126.72
2022-11-28T06:30:20.722Z,98131.19
2022-11-28T06:31:23.541Z,98125.16
2022-11-28T06:32:24.985Z,98127.00
2022-11-28T06:33:26.322Z,98119.41
2022-11-28T06:34:27.685Z,98120.19
2022-11-28T06:35:29.044Z,98119.13
2022-11-28T06:36:30.437Z,98119.66
2022-11-28T06:37:31.880Z,98123.06
2022-11-28T06:38:33.465Z,98114.41
2022-11-28T06:39:34.886Z,98114.91
2022-11-28T06:40:37.885Z,98113.84
2022-11-28T06:41:39.820Z,98117.00
2022-11-28T06:42:41.332Z,98123.53
2022-11-28T06:43:42.737Z,98118.28
2022-11-28T06:44:44.111Z,98115.94
2022-11-28T06:45:45.564Z,98120.91
2022-11-28T06:46:46.989Z,98117.78
2022-11-28T06:47:48.332Z,98124.59
2022-11-28T06:48:51.040Z,98123.03
2022-11-28T06:49:52.549Z,98122.75
2022-11-28T06:50:54.541Z,98124.59
2022-11-28T06:51:55.936Z,98130.63
2022-11-28T06:52:57.329Z,98122.75
2022-11-28T06:53:58.683Z,98118.56
2022-11-28T06:55:00.048Z,98117.22
2022-11-28T06:56:05.554Z,98118.78
2022-11-28T06:57:06.926Z,98120.91
2022-11-28T06:58:08.517Z,98116.72
2022-11-28T06:59:13.787Z,98116.16
2022-11-28T07:00:16.201Z,98110.66
2022-11-28T07:01:19.035Z,98099.09
2022-11-28T07:02:20.608Z,98098.81
2022-11-28T07:03:22.012Z,98108.81
2022-11-28T07:04:23.395Z,98102.78
2022-11-28T07:05:25.510Z,98103.84
2022-11-28T07:06:27.433Z,98106.72
2022-11-28T07:07:28.989Z,98096.22
2022-11-28T07:08:30.912Z,98104.09
2022-11-28T07:09:32.330Z,98119.06
2022-11-28T07:10:33.800Z,98108.81
2022-11-28T07:11:35.219Z,98112.72
2022-11-28T07:12:36.646Z,98107.75
2022-11-28T07:13:38.201Z,98105.13
2022-11-28T07:14:39.601Z,98111.16
2022-11-28T07:15:47.921Z,98112.97
2022-11-28T07:16:49.457Z,98110.06
2022-11-28T07:17:51.226Z,98100.34
2022-11-28T07:18:53.491Z,98114.50
2022-11-28T07:19:55.349Z,98115.31
2022-11-28T07:20:59.390Z,98119.75
2022-11-28T07:22:00.941Z,98118.72
2022-11-28T07:23:02.468Z,98106.38
2022-11-28T07:24:03.846Z,98105.81
2022-11-28T07:25:05.537Z,98106.59
2022-11-28T07:26:07.584Z,98109.22
2022-11-28T07:27:09.020Z,98126.56
2022-11-28T07:28:10.442Z,98137.06
2022-11-28T07:29:15.600Z,98142.53
2022-11-28T07:30:17.073Z,98159.34
2022-11-28T07:31:19.716Z,98155.41
2022-11-28T07:32:21.131Z,98167.47
2022-11-28T07:33:22.635Z,98159.31
2022-11-28T07:34:24.121Z,98157.47
2022-11-28T07:35:25.584Z,98150.91
2022-11-28T07:36:27.874Z,98148.75
2022-11-28T07:37:29.272Z,98145.59
2022-11-28T07:38:30.958Z,98143.75
2022-11-28T07:39:32.582Z,98142.44
2022-11-28T07:40:33.975Z,98135.84
2022-11-28T07:41:35.570Z,98136.91
2022-11-28T07:42:36.933Z,98136.91
2022-11-28T07:43:38.968Z,98131.13
2022-11-28T07:44:40.351Z,98135.34
2022-11-28T07:45:59.588Z,98127.19
2022-11-28T07:47:02.298Z,98134.00
2022-11-28T07:48:03.696Z,98135.56
2022-11-28T07:49:05.162Z,98137.94
2022-11-28T07:50:06.922Z,98133.47
2022-11-28T07:51:19.338Z,98142.63
2022-11-28T07:52:20.721Z,98135.53
2022-11-28T07:53:23.466Z,98142.09
2022-11-28T07:54:24.852Z,98138.38
2022-11-28T07:55:26.207Z,98144.16
2022-11-28T07:56:39.559Z,98139.94
2022-11-28T07:57:50.652Z,98138.63
2022-11-28T07:58:52.162Z,98132.84
2022-11-28T07:59:53.597Z,98133.63
2022-11-28T08:00:55.018Z,98138.59
2022-11-28T08:01:56.428Z,98129.66
2022-11-28T08:02:57.890Z,98131.22
2022-11-28T08:04:00.003Z,98126.72
2022-11-28T08:05:01.504Z,98127.75
2022-11-28T08:06:03.428Z,98124.81
2022-11-28T08:07:04.805Z,98128.25
2022-11-28T08:08:06.269Z,98121.41
2022-11-28T08:09:08.402Z,98115.09
2022-11-28T08:10:09.842Z,98124.81
2022-11-28T08:11:11.226Z,98125.59
2022-11-28T08:12:12.658Z,98120.84
2022-11-28T08:13:14.138Z,98115.59
2022-11-28T08:14:15.493Z,98124.00
2022-11-28T08:15:16.924Z,98129.25
2022-11-28T08:16:20.033Z,98129.25
2022-11-28T08:17:21.508Z,98126.34
2022-11-28T08:18:23.262Z,98122.66
2022-11-28T08:19:25.001Z,98131.84
2022-11-28T08:20:26.468Z,98134.97
2022-11-28T08:21:30.074Z,98132.34
2022-11-28T08:22:31.497Z,98132.88
2022-11-28T08:23:33.860Z,98139.69
2022-11-28T08:24:35.280Z,98140.19
2022-11-28T08:25:36.672Z,98140.69
2022-11-28T08:26:38.141Z,98143.81
2022-11-28T08:27:39.539Z,98131.19
2022-11-28T08:28:41.372Z,98132.47
2022-11-28T08:29:43.083Z,98129.56
2022-11-28T08:30:44.616Z,98134.56
2022-11-28T08:31:46.081Z,98134.28
2022-11-28T08:32:47.526Z,98138.97
2022-11-28T08:33:50.058Z,98137.94
2022-11-28T08:34:51.493Z,98135.31
2022-11-28T08:35:53.303Z,98134.72
2022-11-28T08:36:54.690Z,98142.06
2022-11-28T08:38:01.473Z,98146.25
2022-11-28T08:39:22.952Z,98151.22
2022-11-28T08:40:25.504Z,98140.94
2022-11-28T08:41:26.913Z,98149.50
2022-11-28T08:42:28.512Z,98143.22
2022-11-28T08:43:29.891Z,98144.25
2022-11-28T08:44:31.291Z,98141.84
2022-11-28T08:45:32.749Z,98133.97
2022-11-28T08:46:34.225Z,98132.91
2022-11-28T08:47:35.657Z,98132.91
2022-11-28T08:48:37.604Z,98133.41
2022-11-28T08:49:39.020Z,98132.34
2022-11-28T08:50:48.049Z,98129.72
2022-11-28T08:51:49.673Z,98123.38
2022-11-28T08:52:51.030Z,98126.53
2022-11-28T08:53:57.897Z,98121.28
2022-11-28T08:55:00.989Z,98121.75
2022-11-28T08:56:02.333Z,98123.25
2022-11-28T08:57:03.697Z,98110.88
2022-11-28T08:58:05.151Z,98116.16
2022-11-28T08:59:06.568Z,98122.47
2022-11-28T09:00:08.122Z,98123.78
2022-11-28T09:01:16.617Z,98123.50
2022-11-28T09:02:20.832Z,98124.28
2022-11-28T09:03:26.080Z,98130.06
2022-11-28T09:04:27.454Z,98128.97
2022-11-28T09:05:29.267Z,98130.25
2022-11-28T09:06:30.633Z,98130.78
2022-11-28T09:07:32.060Z,98127.84
2022-11-28T09:08:33.496Z,98138.59
2022-11-28T09:09:34.841Z,98129.94
2022-11-28T09:10:37.296Z,98136.75
2022-11-28T09:11:38.732Z,98133.06
2022-11-28T09:12:40.116Z,98134.34
2022-11-28T09:13:41.878Z,98138.53
2022-11-28T09:14:43.310Z,98137.97
2022-11-28T09:15:46.772Z,98135.84
2022-11-28T09:16:50.559Z,98135.56
2022-11-28T09:17:52.563Z,98132.38
2022-11-28T09:18:54.373Z,98126.81
2022-11-28T09:19:55.742Z,98123.09
2022-11-28T09:21:01.220Z,98129.38
2022-11-28T09:22:02.629Z,98120.69
2022-11-28T09:23:04.028Z,98131.72
2022-11-28T09:24:05.689Z,98131.16
2022-11-28T09:25:07.429Z,98128.09
2022-11-28T09:26:09.789Z,98121.56
2022-11-28T09:27:11.173Z,98126.84
2022-11-28T09:28:12.570Z,98129.47
2022-11-28T09:29:14.010Z,98132.59
2022-11-28T09:30:15.483Z,98129.69
2022-11-28T09:31:17.737Z,98136.53
2022-11-28T09:32:19.201Z,98127.53
2022-11-28T09:33:20.530Z,98123.84
2022-11-28T09:34:21.883Z,98121.97
2022-11-28T09:35:23.224Z,98130.09
2022-11-28T09:36:24.764Z,98129.25
2022-11-28T09:37:27.857Z,98130.31
2022-11-28T09:38:29.184Z,98129.75
2022-11-28T09:39:44.017Z,98135.81
2022-11-28T09:40:52.376Z,98135.53
2022-11-28T09:42:01.505Z,98135.75
2022-11-28T09:43:04.058Z,98131.75
2022-11-28T09:44:12.491Z,98134.88
2022-11-28T09:45:18.705Z,98139.56
2022-11-28T09:46:24.487Z,98148.47
2022-11-28T09:47:28.248Z,98145.28
2022-11-28T09:48:38.059Z,98143.63
2022-11-28T09:49:51.769Z,98143.63
2022-11-28T09:50:55.954Z,98145.19
2022-11-28T09:52:12.086Z,98155.16
2022-11-28T09:53:16.453Z,98151.94
2022-11-28T09:54:32.975Z,98159.09
2022-11-28T09:55:43.011Z,98156.06
2022-11-28T09:56:47.339Z,98159.22
2022-11-28T09:57:49.983Z,98158.16
2022-11-28T09:58:55.408Z,98157.38
2022-11-28T09:59:56.831Z,98146.31
2022-11-28T10:01:04.163Z,98147.91
2022-11-28T10:02:18.283Z,98149.16
2022-11-28T10:03:29.013Z,98144.66
2022-11-28T10:04:39.445Z,98149.16
2022-11-28T10:05:49.668Z,98145.19
2022-11-28T10:07:26.649Z,98147.22
2022-11-28T10:08:28.089Z,98134.25
2022-11-28T10:09:35.125Z,98136.31
2022-11-28T10:10:36.481Z,98134.47
2022-11-28T10:11:50.093Z,98124.69
2022-11-28T10:13:11.069Z,98126.75
2022-11-28T10:14:24.677Z,98129.09
2022-11-28T10:15:28.949Z,98128.31
2022-11-28T10:16:33.488Z,98122.47
2022-11-28T10:17:53.605Z,98120.34
2022-11-28T10:18:57.283Z,98115.16
2022-11-28T10:20:02.452Z,98113.59
2022-11-28T10:21:10.253Z,98115.97
2022-11-28T10:22:15.584Z,98114.09
2022-11-28T10:23:23.937Z,98120.34
2022-11-28T10:24:37.180Z,98124.91
2022-11-28T10:25:41.289Z,98124.44
2022-11-28T10:26:50.690Z,98138.41
2022-11-28T10:27:52.091Z,98143.69
2022-11-28T10:28:55.496Z,98137.34
2022-11-28T10:30:01.477Z,98139.69
2022-11-28T10:31:02.890Z,98147.31
2022-11-28T10:32:05.277Z,98150.16
2022-11-28T10:33:06.598Z,98141.16
2022-11-28T10:34:07.999Z,98143.22
2022-11-28T10:35:28.325Z,98141.31
2022-11-28T10:36:39.241Z,98142.50
2022-11-28T10:37:40.647Z,98139.28
2022-11-28T10:38:42.176Z,98131.84
2022-11-28T10:39:44.534Z,98139.19
2022-11-28T10:41:15.301Z,98143.88
2022-11-28T10:42:35.295Z,98132.16
2022-11-28T10:43:51.457Z,98128.91
2022-11-28T10:45:31.485Z,98130.97
2022-11-28T10:46:41.997Z,98130.41
2022-11-28T10:48:29.623Z,98131.19
2022-11-28T10:49:29.399Z,98130.41
2022-11-28T10:50:39.055Z,98126.97
2022-11-28T10:51:43.196Z,98127.16
2022-11-28T10:52:46.564Z,98129.31
2022-11-28T10:53:47.894Z,98132.94
2022-11-28T10:54:49.275Z,98128.91
2022-11-28T10:56:11.591Z,98130.47
2022-11-28T10:57:13.192Z,98128.53
2022-11-28T10:58:22.932Z,98120.78
2022-11-28T10:59:43.049Z,98119.13
2022-11-28T11:00:45.192Z,98123.63
2022-11-28T11:01:50.263Z,98118.06
2022-11-28T11:02:56.038Z,98129.28
2022-11-28T11:03:57.511Z,98125.28
2022-11-28T11:04:59.090Z,98126.66
2022-11-28T11:06:00.515Z,98126.66
2022-11-28T11:07:12.770Z,98132.44
2022-11-28T11:08:19.395Z,98132.63
2022-11-28T11:09:20.890Z,98132.81
2022-11-28T11:10:31.764Z,98132.81
2022-11-28T11:11:34.839Z,98132.22
2022-11-28T11:12:36.262Z,98132.91
2022-11-28T11:14:03.601Z,98132.31
2022-11-28T11:15:29.288Z,98123.13
2022-11-28T11:16:47.390Z,98117.34
2022-11-28T11:17:48.902Z,98120.47
2022-11-28T11:18:51.874Z,98121.09
2022-11-28T11:19:53.281Z,98111.56
2022-11-28T11:21:08.734Z,98112.66
2022-11-28T11:22:12.807Z,98109.53
2022-11-28T11:23:19.351Z,98121.84
2022-11-28T11:24:20.712Z,98106.59
2022-11-28T11:25:22.577Z,98108.75
2022-11-28T11:26:31.954Z,98103.16
2022-11-28T11:27:35.137Z,98107.38
2022-11-28T11:28:41.129Z,98111.00
2022-11-28T11:29:44.719Z,98108.34
2022-11-28T11:30:46.633Z,98113.63
2022-11-28T11:31:51.052Z,98112.06
2022-11-28T11:32:52.806Z,98111.75
2022-11-28T11:34:05.359Z,98114.50
2022-11-28T11:35:16.170Z,98110.00
2022-11-28T11:36:24.981Z,98105.28
2022-11-28T11:37:38.721Z,98116.94
2022-11-28T11:38:40.139Z,98114.00
2022-11-28T11:39:49.414Z,98113.72
2022-11-28T11:40:50.918Z,98109.50
2022-11-28T11:42:01.214Z,98116.63
2022-11-28T11:43:02.617Z,98107.47
2022-11-28T11:44:15.834Z,98109.31
2022-11-28T11:45:25.034Z,98113.03
2022-11-28T11:46:26.423Z,98108.81
2022-11-28T11:47:41.130Z,98113.63
2022-11-28T11:48:42.496Z,98113.03
2022-11-28T11:49:45.707Z,98108.53
2022-11-28T11:50:54.299Z,98109.13
2022-11-28T11:51:56.920Z,98108.75
2022-11-28T11:53:27.509Z,98107.69
2022-11-28T11:54:28.867Z,98108.75
2022-11-28T11:55:31.543Z,98101.41
2022-11-28T11:56:37.201Z,98103.28
2022-11-28T11:57:41.620Z,98108.38
2022-11-28T11:58:51.878Z,98107.38
2022-11-28T11:59:55.853Z,98100.53
2022-11-28T12:00:59.585Z,98104.28
2022-11-28T12:02:02.828Z,98098.69
2022-11-28T12:03:14.941Z,98101.31
2022-11-28T12:04:43.685Z,98100.53
2022-11-28T12:06:12.850Z,98097.59
2022-11-28T12:07:17.054Z,98094.38
2022-11-28T12:08:30.678Z,98093.91
2022-11-28T12:09:36.276Z,98085.97
2022-11-28T12:10:43.472Z,98085.69
2022-11-28T12:11:49.059Z,98080.88
2022-11-28T12:12:50.513Z,98086.94
2022-11-28T12:13:52.173Z,98090.38
2022-11-28T12:14:53.539Z,98088.31
2022-11-28T12:16:00.974Z,98085.88
2022-11-28T12:17:40.579Z,98090.84
2022-11-28T12:18:38.511Z,98095.03
2022-11-28T12:19:39.834Z,98096.59
2022-11-28T12:20:53.329Z,98091.81
2022-11-28T12:22:10.025Z,98093.06
2022-11-28T12:23:17.376Z,98093.84
2022-11-28T12:24:22.721Z,98091.53
2022-11-28T12:25:37.351Z,98086.81
2022-11-28T12:26:41.389Z,98098.47
2022-11-28T12:27:42.781Z,98087.75
2022-11-28T12:28:53.206Z,98093.78
2022-11-28T12:30:06.223Z,98092.22
2022-11-28T12:31:13.783Z,98085.88
2022-11-28T12:32:25.196Z,98077.66
2022-11-28T12:33:46.955Z,98080.94
2022-11-28T12:34:57.412Z,98078.63
2022-11-28T12:36:03.036Z,98087.78
2022-11-28T12:37:14.220Z,98084.38
2022-11-28T12:38:18.566Z,98083.91
2022-11-28T12:39:19.926Z,98081.94
2022-11-28T12:40:39.815Z,98079.75
2022-11-28T12:41:44.197Z,98085.53
2022-11-28T12:42:48.294Z,98081.50